Date,TemperatureHighF,TemperatureAvgF,TemperatureLowF,DewpointHighF,DewpointAvgF,DewpointLowF,HumidityHigh,HumidityAvg,HumidityLow,PressureMaxIn,PressureMinIn,WindSpeedMaxMPH,WindSpeedAvgMPH,GustSpeedMaxMPH,PrecipitationSumIn
2013-1-1,23.2,20.4,17.5,18.0,15.0,13.0,88,79,66,30.16,30.06,10,2,15,0.00
2013-1-2,24.3,22.3,19.8,20.0,17.6,14.0,86,82,78,30.15,30.04,5,1,7,0.00
2013-1-3,29.6,26.6,23.4,24.0,22.0,20.0,87,83,76,30.09,29.99,10,3,16,0.00
2013-1-4,29.7,26.9,25.1,26.0,22.3,20.0,87,83,78,30.11,29.92,11,4,15,0.00
2013-1-5,35.4,29.2,19.4,32.0,25.0,18.0,93,84,73,30.21,29.88,4,0,11,0.00
2013-1-6,34.4,31.5,28.7,32.0,26.5,21.0,90,82,72,30.27,29.82,18,4,21,0.02
2013-1-7,39.3,32.3,23.6,29.0,24.1,18.0,84,72,59,30.27,29.95,7,2,15,0.03
2013-1-8,42.3,34.7,28.8,32.0,28.8,26.0,90,79,67,30.15,29.98,5,1,11,0.03
2013-1-9,39.3,37.1,33.9,33.0,29.1,25.0,78,73,69,30.41,29.83,28,5,30,0.04
2013-1-10,42.3,34.4,25.9,29.0,25.8,23.0,90,72,52,30.54,30.09,7,1,10,0.01
2013-1-11,45.2,39.9,33.6,44.0,38.0,30.0,95,93,79,30.09,29.66,4,0,11,0.30
2013-1-12,52.1,44.5,33.1,46.0,38.1,29.0,93,79,50,29.95,29.63,10,2,18,0.05
2013-1-13,32.5,29.5,24.4,30.0,26.5,20.0,92,88,81,30.03,29.84,7,2,10,0.13
2013-1-14,24.4,20.9,17.6,19.0,16.1,14.0,88,81,68,30.40,30.04,7,2,12,0.00
2013-1-15,27.0,21.9,13.9,18.0,15.2,9.0,83,75,64,30.41,30.10,10,2,17,0.00
2013-1-16,31.1,25.6,19.2,27.0,21.2,16.0,93,83,69,30.08,29.69,21,4,28,0.00
2013-1-17,27.4,17.7,14.5,19.0,11.4,6.0,87,76,64,30.36,29.99,20,8,24,0.00
2013-1-18,37.3,21.1,8.1,32.0,15.3,2.0,84,78,62,30.41,29.77,12,2,17,0.01
2013-1-19,39.1,36.3,29.6,36.0,32.3,26.0,94,85,67,29.84,29.45,17,3,26,0.18
2013-1-20,27.1,15.8,11.9,23.0,11.2,7.0,89,82,71,30.18,29.53,29,11,39,0.00
2013-1-21,13.4,8.3,1.9,10.0,3.7,-3.0,88,81,73,30.14,30.00,16,9,25,0.00
2013-1-22,8.6,4.1,2.0,3.0,-0.6,-3.0,86,81,69,30.29,30.13,17,8,20,0.00
2013-1-23,13.4,9.7,4.6,10.0,5.2,1.0,89,82,72,30.27,30.09,9,2,15,0.00
2013-1-24,11.0,5.3,-1.7,4.0,0.8,-5.0,87,81,70,30.69,30.26,4,0,6,0.00
2013-1-25,20.0,14.5,8.0,15.0,10.2,2.0,89,83,74,30.50,29.99,4,0,13,0.00
2013-1-26,25.8,20.0,13.7,17.0,15.6,11.0,91,83,70,30.42,30.07,6,1,11,0.00
2013-1-27,30.9,25.2,16.0,25.0,20.6,13.0,92,83,66,30.43,30.05,4,1,11,0.00
2013-1-28,32.6,30.4,25.9,31.0,28.8,24.0,95,94,91,30.04,29.83,7,1,8,0.00
2013-1-29,50.4,38.8,30.2,49.0,37.6,29.0,96,95,94,29.99,29.46,10,1,15,1.38
2013-1-30,34.6,30.6,21.9,34.0,29.5,19.0,96,95,88,29.47,29.12,20,9,25,0.19
2013-1-31,21.8,17.5,16.1,19.0,14.4,12.0,92,87,82,29.89,29.28,24,11,24,0.00
2013-2-1,16.6,13.3,9.3,13.0,9.2,5.0,88,83,78,30.17,29.90,18,6,21,0.00
2013-2-2,16.1,10.6,8.0,11.0,6.6,4.0,88,84,75,30.14,30.04,6,1,11,0.00
2013-2-3,16.7,12.6,5.5,12.0,8.1,2.0,88,82,72,30.04,29.87,13,4,18,0.00
2013-2-4,17.5,13.0,4.9,8.0,6.4,1.0,84,75,63,30.02,29.95,7,2,11,0.00
2013-2-5,23.6,14.6,0.2,20.0,10.0,-3.0,88,82,70,30.04,29.74,17,4,23,0.00
2013-2-6,27.3,21.4,13.7,21.0,14.4,10.0,91,75,61,30.28,30.04,11,2,16,0.00
2013-2-7,29.4,26.4,23.1,26.0,24.1,21.0,93,91,85,30.22,30.06,3,0,9,0.00
2013-2-8,22.8,17.4,3.7,21.0,14.3,1.0,91,87,79,30.43,30.07,11,4,13,0.00
2013-2-9,31.4,13.0,-6.9,19.0,6.8,-11.0,91,77,57,30.46,30.23,4,0,7,0.00
2013-2-10,36.7,27.0,13.6,35.0,22.1,11.0,93,82,66,30.24,29.52,9,1,12,0.35
2013-2-11,38.5,34.5,29.4,37.0,31.5,21.0,95,89,72,29.81,29.38,15,4,21,0.33
2013-2-12,29.3,26.3,23.4,23.0,20.6,18.0,86,79,71,30.00,29.82,14,4,19,0.00
2013-2-13,38.1,31.0,22.9,30.0,25.8,19.0,88,81,70,29.88,29.69,3,0,6,0.00
2013-2-14,34.1,30.4,23.1,32.0,28.2,19.0,95,91,82,29.89,29.58,18,4,25,0.05
2013-2-15,23.1,19.9,16.0,19.0,15.8,12.0,90,84,76,30.15,29.89,12,5,19,0.00
2013-2-16,18.1,12.7,2.8,14.0,8.4,-1.0,90,83,70,30.19,30.08,9,2,10,0.00
2013-2-17,20.3,10.8,-2.5,13.0,5.8,-6.0,89,80,64,30.24,30.14,2,0,5,0.00
2013-2-18,40.1,28.4,14.1,34.0,20.4,10.0,93,73,58,30.14,29.42,5,1,16,0.28
2013-2-19,39.4,25.4,14.5,38.0,22.5,10.0,95,88,81,29.91,29.22,22,10,26,0.16
2013-2-20,20.6,16.5,14.4,17.0,12.9,10.0,89,85,80,30.32,29.91,22,15,27,0.00
2013-2-21,20.5,17.0,13.6,16.0,12.0,10.0,88,81,74,30.46,30.32,13,2,20,0.00
2013-2-22,29.1,24.9,16.8,25.0,21.3,11.0,90,86,78,30.32,29.83,4,1,11,0.00
2013-2-23,30.4,28.0,25.7,28.0,25.7,23.0,93,90,84,29.86,29.77,3,0,4,0.00
2013-2-24,32.2,28.8,24.1,27.0,25.6,22.0,94,87,79,30.16,29.84,3,0,4,0.04
2013-2-25,35.9,30.9,24.3,27.0,25.6,22.0,90,81,68,30.22,30.13,1,0,3,0.07
2013-2-26,38.1,30.8,23.4,27.0,23.9,19.0,87,76,61,30.18,29.73,6,1,14,0.06
2013-2-27,36.6,33.4,31.1,30.0,29.4,26.0,94,85,76,29.72,29.61,8,2,14,0.04
2013-2-28,31.3,29.2,24.0,30.0,24.6,17.0,94,83,68,30.08,29.69,18,8,21,0.00
2013-3-1,23.8,19.9,15.9,17.0,13.4,10.0,81,76,70,30.23,30.09,11,5,16,0.00
2013-3-2,23.7,18.1,9.5,18.0,12.7,6.0,86,79,71,30.21,30.13,15,4,17,0.00
2013-3-3,22.6,19.0,13.2,16.0,13.9,10.0,87,80,73,30.13,30.08,11,3,15,0.00
2013-3-4,23.9,18.9,10.7,19.0,14.0,7.0,91,81,73,30.19,30.12,8,2,11,0.00
2013-3-5,39.1,21.0,3.7,22.0,13.9,1.0,89,76,50,30.18,29.98,5,1,11,0.00
2013-3-6,33.1,30.0,23.6,29.0,26.4,20.0,94,86,81,30.27,30.08,16,5,18,0.00
2013-3-7,27.5,25.4,18.3,24.0,19.5,14.0,90,78,68,30.46,30.28,13,4,17,0.00
2013-3-8,37.1,22.3,10.3,26.0,18.2,8.0,91,84,57,30.54,30.39,8,1,11,0.00
2013-3-9,44.2,32.8,19.9,33.0,24.0,17.0,93,72,46,30.39,29.95,5,1,12,0.21
2013-3-10,42.0,37.2,33.9,40.0,35.4,33.0,96,93,89,29.93,29.78,4,1,7,0.63
2013-3-11,48.0,39.4,31.4,44.0,38.1,30.0,96,95,86,29.77,29.42,7,1,11,0.28
2013-3-12,31.3,27.1,23.5,30.0,23.9,20.0,93,87,78,29.87,29.55,10,4,15,0.01
2013-3-13,26.7,23.5,20.4,19.0,17.1,14.0,91,77,60,30.23,29.87,20,11,28,0.00
2013-3-14,32.4,27.1,20.1,22.0,18.7,16.0,85,71,58,30.25,30.01,12,3,17,0.00
2013-3-15,32.7,28.7,23.1,30.0,22.9,14.0,93,79,64,30.01,29.87,19,8,24,0.00
2013-3-16,23.2,19.2,14.4,17.0,13.7,9.0,89,80,66,30.06,29.90,9,2,10,0.00
2013-3-17,28.1,20.4,15.6,19.0,10.3,5.0,90,66,40,30.35,30.05,20,4,27,0.00
2013-3-18,40.4,26.3,14.7,28.0,18.3,9.0,92,74,38,30.22,29.50,5,1,12,0.00
2013-3-19,30.3,24.2,20.2,28.0,19.7,16.0,91,83,73,29.87,29.48,13,4,18,0.01
2013-3-20,25.8,21.4,19.0,19.0,14.3,9.0,90,74,58,29.92,29.86,12,7,20,0.00
2013-3-21,26.4,24.9,21.3,23.0,20.3,18.0,91,82,75,29.98,29.85,19,10,21,0.00
2013-3-22,30.2,27.0,21.8,26.0,22.2,18.0,88,82,76,30.08,29.97,13,5,15,0.00
2013-3-23,33.7,29.2,25.4,27.0,24.0,21.0,87,81,70,30.15,30.08,11,2,12,0.00
2013-3-24,36.7,30.5,21.6,27.0,21.9,15.0,89,72,51,30.12,29.85,9,2,12,0.00
2013-3-25,33.5,30.2,20.7,29.0,24.8,15.0,86,80,73,30.03,29.83,18,7,19,0.00
2013-3-26,36.7,32.8,30.6,30.0,28.0,25.0,92,83,66,30.18,30.03,10,4,14,0.00
2013-3-27,37.7,33.3,30.2,29.0,27.4,25.0,87,79,67,30.25,30.16,12,5,16,0.00
2013-3-28,39.0,32.3,27.3,29.0,25.3,21.0,86,75,60,30.30,30.25,4,1,6,0.00
2013-3-29,40.9,29.8,19.4,26.0,20.3,17.0,92,71,40,30.33,30.24,4,1,6,0.00
2013-3-30,51.5,36.1,20.0,38.0,20.5,16.0,89,59,28,30.25,29.83,5,0,10,0.02
2013-3-31,42.1,37.5,28.1,39.0,33.8,20.0,95,86,68,29.82,29.60,22,4,28,0.09
2013-4-1,28.2,25.3,22.3,20.0,16.4,11.0,86,69,55,30.12,29.80,24,12,27,0.00
2013-4-2,31.2,26.4,19.0,20.0,15.4,11.0,80,64,46,30.30,30.09,15,6,20,0.00
2013-4-3,32.3,27.6,24.6,22.0,17.3,14.0,76,65,53,30.48,30.29,19,6,22,0.00
2013-4-4,46.8,33.9,25.1,35.0,21.7,9.0,93,63,41,30.32,29.95,14,2,19,0.01
2013-4-5,35.6,30.6,26.1,28.0,21.4,17.0,78,69,56,30.26,30.05,16,7,21,0.00
2013-4-6,47.6,34.5,25.7,32.0,24.4,17.0,85,67,52,30.24,29.59,16,1,18,0.03
2013-4-7,47.7,36.8,27.3,45.0,31.7,25.0,93,82,53,30.06,29.45,15,5,24,0.15
2013-4-8,41.1,34.0,26.8,38.0,31.1,25.0,95,89,74,30.05,29.77,4,0,10,0.30
2013-4-9,41.3,35.1,32.4,38.0,33.7,31.0,96,94,88,30.12,30.02,10,1,10,0.39
2013-4-10,39.1,34.6,31.4,35.0,31.6,30.0,96,89,76,30.15,30.06,9,2,12,0.65
2013-4-11,35.9,32.9,29.8,31.0,26.3,23.0,92,78,60,30.10,29.78,6,1,10,0.18
2013-4-12,36.5,32.0,29.9,34.0,29.8,27.0,95,91,88,29.78,29.62,3,1,7,0.15
2013-4-13,35.2,32.8,30.6,33.0,29.0,25.0,94,86,68,29.94,29.72,12,3,16,0.26
2013-4-14,45.4,35.2,22.9,30.0,27.6,21.0,95,76,47,30.10,29.90,6,1,9,0.19
2013-4-15,54.1,44.8,36.8,52.0,40.2,29.0,96,84,71,29.90,29.75,10,1,12,0.13
2013-4-16,43.7,38.5,31.9,40.0,30.6,28.0,95,74,58,30.34,29.89,13,3,17,0.00
2013-4-17,49.5,36.1,25.7,37.0,30.5,24.0,95,82,51,30.42,30.07,3,0,9,0.11
2013-4-18,53.9,41.6,35.9,53.0,40.0,34.0,97,94,88,30.06,29.36,4,0,11,0.77
2013-4-19,55.4,38.3,28.2,55.0,31.6,17.0,97,77,59,29.72,29.26,17,5,25,0.04
2013-4-20,30.9,27.1,23.5,22.0,18.8,16.0,87,71,55,30.48,29.73,18,8,23,0.00
2013-4-21,48.7,34.7,17.9,28.0,18.4,13.0,88,57,25,30.63,30.39,7,1,10,0.00
2013-4-22,66.8,45.5,34.9,34.0,29.8,27.0,80,57,29,30.38,30.12,13,2,17,0.00
2013-4-23,60.2,44.2,32.5,47.0,35.6,30.0,95,74,56,30.12,29.84,13,4,16,0.35
2013-4-24,44.3,36.1,33.4,31.0,27.5,22.0,89,73,43,30.00,29.90,15,8,18,0.00
2013-4-25,45.9,38.8,34.7,35.0,29.0,25.0,88,69,48,30.28,29.92,11,4,19,0.01
2013-4-26,64.6,48.2,32.9,41.0,32.4,27.0,81,58,31,30.35,30.13,7,1,15,0.00
2013-4-27,69.8,56.5,44.6,47.0,43.3,37.0,87,64,31,30.21,30.05,4,1,10,0.05
2013-4-28,61.5,48.7,37.4,47.0,39.5,36.0,94,72,45,30.07,29.80,12,0,12,0.00
2013-4-29,64.5,51.7,44.1,55.0,48.5,42.0,96,89,65,29.87,29.81,3,0,9,0.05
2013-4-30,76.2,63.1,50.8,60.0,56.1,49.0,95,79,56,29.90,29.75,14,1,25,0.34
2013-5-1,75.2,57.8,42.4,61.0,50.9,38.0,92,78,53,30.25,29.86,14,2,19,0.00
2013-5-2,46.8,41.8,38.8,41.0,37.9,36.0,91,86,76,30.29,30.18,13,6,19,0.00
2013-5-3,50.9,42.8,38.1,45.0,38.8,35.0,91,86,75,30.23,30.04,9,3,9,0.00
2013-5-4,79.3,55.6,38.1,49.0,41.5,34.0,96,65,29,30.11,30.02,10,1,16,0.00
2013-5-5,69.1,54.1,42.5,44.0,38.9,33.0,83,58,38,30.11,30.01,13,1,13,0.00
2013-5-6,58.6,51.0,41.3,46.0,41.6,38.0,90,71,53,30.10,29.98,15,2,16,0.00
2013-5-7,65.0,53.0,42.5,46.0,41.4,36.0,91,66,38,30.08,29.98,10,2,16,0.00
2013-5-8,66.0,57.2,48.2,51.0,42.9,37.0,83,60,37,30.03,29.94,8,2,9,0.00
2013-5-9,63.5,50.3,43.0,49.0,43.7,40.0,93,79,49,30.00,29.92,17,4,27,0.03
2013-5-10,46.7,42.3,39.5,46.0,40.0,37.0,96,91,86,30.00,29.93,9,3,12,0.59
2013-5-11,47.4,39.3,32.3,44.0,35.9,31.0,96,88,71,29.94,29.71,22,4,27,0.13
2013-5-12,40.4,36.7,35.2,34.0,30.2,26.0,92,78,65,30.10,29.81,25,13,32,0.02
2013-5-13,46.6,39.3,29.0,30.0,26.3,23.0,85,61,41,30.18,30.05,11,3,15,0.00
2013-5-14,69.2,53.4,41.4,47.0,37.2,26.0,75,56,38,30.05,29.60,11,1,14,0.00
2013-5-15,69.7,58.8,51.6,51.0,45.0,41.0,77,62,35,29.76,29.45,15,4,22,0.00
2013-5-16,56.9,50.7,42.9,45.0,42.1,38.0,92,73,57,30.07,29.75,9,3,11,0.00
2013-5-17,63.6,52.1,38.2,48.0,42.2,36.0,95,72,47,30.20,30.07,3,0,6,0.00
2013-5-18,74.6,61.8,51.8,49.0,45.4,42.0,80,57,37,30.17,29.99,5,1,12,0.00
2013-5-19,84.8,65.7,55.6,63.0,52.4,43.0,87,63,44,30.00,29.79,7,1,13,0.00
2013-5-20,87.1,67.0,53.9,69.0,60.9,51.0,96,82,54,29.84,29.67,4,0,13,0.03
2013-5-21,83.1,64.7,54.9,65.0,59.5,53.0,97,85,45,29.73,29.60,12,1,14,0.57
2013-5-22,56.4,53.8,51.1,56.0,52.9,50.0,97,97,96,29.72,29.63,7,1,9,0.62
2013-5-23,53.4,45.1,41.3,52.0,41.4,36.0,97,87,70,30.26,29.72,26,14,30,0.31
2013-5-24,50.3,43.2,36.5,38.0,34.8,31.0,88,73,58,30.43,30.26,16,6,18,0.00
2013-5-25,55.2,44.8,32.1,45.0,38.1,31.0,96,79,57,30.46,30.32,15,4,17,0.00
2013-5-26,57.8,47.9,35.2,46.0,40.3,34.0,96,77,56,30.40,30.22,11,2,11,0.00
2013-5-27,74.2,59.4,43.3,42.0,36.3,30.0,78,47,20,30.25,29.97,4,0,9,0.00
2013-5-28,60.5,57.0,54.1,60.0,51.8,40.0,97,84,50,29.96,29.73,4,0,8,0.18
2013-5-29,72.2,60.8,54.1,64.0,57.9,53.0,97,90,75,29.92,29.73,4,0,5,0.00
2013-5-30,88.4,75.6,62.3,69.0,65.0,60.0,94,72,47,29.90,29.79,8,1,15,0.31
2013-5-31,80.1,72.4,65.5,67.0,63.4,59.0,96,75,50,29.85,29.70,6,1,12,0.10
2013-6-1,76.2,68.8,57.7,66.0,62.5,55.0,95,81,63,29.72,29.60,11,1,15,0.17
2013-6-2,59.3,47.3,38.5,57.0,43.5,36.0,95,86,71,30.03,29.57,18,7,22,0.05
2013-6-3,59.1,48.7,35.0,45.0,39.2,33.0,93,72,51,30.13,30.02,14,3,17,0.00
2013-6-4,57.8,48.3,36.6,49.0,41.6,33.0,96,79,46,30.23,30.14,11,2,14,0.02
2013-6-5,63.0,53.7,48.3,54.0,49.2,46.0,95,85,58,30.20,30.07,5,0,6,0.15
2013-6-6,71.1,58.4,52.1,52.0,45.7,41.0,76,64,40,30.08,29.91,12,2,16,0.00
2013-6-7,61.9,54.6,45.6,51.0,46.9,43.0,93,76,62,29.97,29.89,15,4,15,0.00
2013-6-8,65.3,55.7,45.4,56.0,49.3,42.0,96,80,60,30.05,29.92,7,1,8,0.00
2013-6-9,80.5,64.9,48.6,59.0,53.3,45.0,96,69,44,30.10,29.93,6,1,9,0.00
2013-6-10,68.5,63.7,59.9,63.0,57.5,50.0,93,81,60,29.93,29.76,6,0,6,0.15
2013-6-11,72.5,62.1,56.7,65.0,59.1,55.0,96,90,74,29.88,29.77,14,2,14,0.00
2013-6-12,69.8,62.2,55.9,63.0,58.4,55.0,96,87,69,29.90,29.72,6,1,10,0.00
2013-6-13,64.3,58.7,54.1,58.0,53.9,51.0,92,84,78,30.00,29.70,19,8,22,0.00
2013-6-14,64.9,55.7,45.9,52.0,45.8,37.0,96,72,38,30.13,30.01,13,3,15,0.00
2013-6-15,74.5,61.6,44.4,62.0,51.8,39.0,88,71,50,30.04,29.80,3,0,6,0.02
2013-6-16,77.5,67.7,59.3,63.0,59.4,54.0,96,77,49,29.83,29.71,14,2,15,0.65
2013-6-17,64.1,60.5,56.2,58.0,55.6,53.0,88,84,70,29.98,29.81,14,5,17,0.00
2013-6-18,66.6,58.5,49.8,55.0,50.5,45.0,94,76,50,30.09,29.98,19,5,19,0.00
2013-6-19,70.5,58.4,42.7,55.0,46.5,41.0,95,68,39,30.18,30.09,15,2,20,0.00
2013-6-20,80.7,65.4,49.0,63.0,52.5,45.0,89,66,40,30.15,30.07,6,1,7,0.00
2013-6-21,84.6,72.2,57.6,68.0,61.0,54.0,91,69,51,30.13,29.89,6,1,13,0.00
2013-6-22,74.6,64.9,60.8,66.0,61.2,59.0,94,88,73,30.06,29.91,11,3,16,0.00
2013-6-23,88.4,74.6,61.2,71.0,66.5,60.0,96,78,56,29.99,29.81,6,1,9,0.00
2013-6-24,83.0,76.3,68.3,70.0,67.9,65.0,90,75,61,29.92,29.81,4,1,8,0.00
2013-6-25,78.3,71.9,67.1,68.0,65.0,63.0,88,79,64,29.84,29.77,5,1,7,0.00
2013-6-26,79.8,69.8,61.4,71.0,65.6,60.0,97,87,73,29.80,29.70,13,2,15,0.00
2013-6-27,77.1,69.3,65.1,68.0,64.4,62.0,94,85,70,29.75,29.63,15,2,18,0.00
2013-6-28,70.5,65.2,58.3,65.0,61.8,57.0,96,89,78,29.63,29.54,20,5,22,0.13
2013-6-29,72.7,65.8,62.3,63.0,60.5,57.0,95,83,67,29.78,29.58,15,5,18,0.00
2013-6-30,71.7,65.2,55.5,60.0,55.0,50.0,95,71,51,30.01,29.79,20,6,21,0.00
2013-7-1,79.3,64.9,51.4,62.0,53.6,44.0,95,70,42,30.13,30.01,13,2,15,0.00
2013-7-2,71.9,61.5,49.0,58.0,50.4,43.0,89,68,50,30.14,30.05,15,3,17,0.00
2013-7-3,74.5,66.2,55.2,63.0,55.5,48.0,84,69,58,30.09,29.99,10,1,10,0.00
2013-7-4,79.2,68.8,61.1,65.0,61.4,59.0,95,79,55,30.07,29.99,3,0,6,0.00
2013-7-5,85.5,73.1,61.5,66.0,61.5,57.0,90,69,46,30.05,29.94,3,1,5,0.00
2013-7-6,85.5,73.9,64.4,68.0,62.5,57.0,85,69,45,30.01,29.91,9,2,11,0.00
2013-7-7,85.2,74.4,64.0,70.0,64.5,57.0,90,73,40,29.95,29.86,4,0,5,0.00
2013-7-8,74.7,70.5,67.2,72.0,68.0,66.0,97,92,78,29.94,29.87,12,1,17,1.17
2013-7-9,82.3,72.1,67.1,74.0,68.4,66.0,97,88,72,29.96,29.70,5,1,8,0.00
2013-7-10,72.6,69.3,62.3,70.0,62.6,56.0,94,79,67,29.93,29.68,15,5,18,0.07
2013-7-11,71.1,63.5,56.9,60.0,57.1,55.0,93,80,60,30.07,29.93,14,4,18,0.00
2013-7-12,84.1,65.4,53.1,65.0,56.3,52.0,96,75,34,30.17,30.06,11,2,15,0.00
2013-7-13,81.9,71.1,59.6,67.0,61.2,57.0,92,73,48,30.17,30.08,11,2,13,0.00
2013-7-14,81.6,72.1,60.0,71.0,64.6,57.0,90,78,62,30.22,30.16,11,2,12,0.00
2013-7-15,84.9,74.3,64.5,72.0,67.6,63.0,95,80,60,30.26,30.19,8,2,9,0.00
2013-7-16,89.0,79.3,67.5,76.0,70.4,65.0,95,75,58,30.25,30.14,5,1,8,0.00
2013-7-17,89.7,82.5,76.5,75.0,72.9,70.0,86,73,52,30.19,30.06,7,2,8,0.00
2013-7-18,91.6,83.2,75.6,75.0,72.2,70.0,87,71,50,30.07,29.77,10,2,15,0.00
2013-7-19,86.2,80.6,72.6,73.0,70.1,62.0,85,71,57,29.77,29.61,19,4,20,0.07
2013-7-20,71.7,66.2,58.4,63.0,56.5,48.0,89,72,56,29.98,29.71,19,6,20,0.00
2013-7-21,71.7,61.7,47.2,59.0,51.2,45.0,92,71,39,30.03,29.91,9,2,10,0.00
2013-7-22,86.4,74.2,61.1,66.0,62.2,55.0,89,68,49,29.91,29.63,6,1,9,0.00
2013-7-23,76.0,65.3,59.2,67.0,57.5,49.0,95,76,65,29.92,29.60,26,10,28,0.37
2013-7-24,70.2,60.4,48.7,53.0,49.7,47.0,93,69,47,30.06,29.93,14,3,16,0.00
2013-7-25,80.6,65.0,48.0,57.0,51.6,46.0,94,65,39,30.07,29.96,3,0,6,0.00
2013-7-26,79.7,64.7,55.5,65.0,57.8,48.0,95,79,51,29.98,29.82,4,1,12,0.23
2013-7-27,62.2,58.2,53.6,60.0,55.8,52.0,96,92,85,29.83,29.78,17,3,19,0.04
2013-7-28,63.5,56.6,50.9,55.0,52.1,49.0,95,85,64,29.88,29.74,8,1,13,0.03
2013-7-29,66.6,59.4,54.3,57.0,54.5,52.0,96,85,62,30.16,29.89,11,3,14,0.15
2013-7-30,71.5,61.7,50.4,64.0,56.1,49.0,96,83,64,30.21,30.08,7,1,8,0.00
2013-7-31,77.7,68.0,61.1,64.0,60.7,56.0,89,78,61,30.08,29.86,5,0,13,0.00
2013-8-1,72.9,65.8,58.8,61.0,57.0,54.0,95,75,55,29.88,29.84,11,2,13,0.00
2013-8-2,71.6,64.9,56.6,63.0,58.1,54.0,93,79,60,29.90,29.77,9,2,15,0.06
2013-8-3,66.9,62.4,55.0,59.0,55.5,53.0,94,79,67,30.08,29.90,16,5,21,0.00
2013-8-4,67.3,62.3,51.8,56.0,52.3,47.0,87,71,51,30.19,30.08,13,5,19,0.00
2013-8-5,70.4,59.3,47.1,59.0,51.1,45.0,93,76,48,30.10,29.88,4,0,5,0.01
2013-8-6,78.8,69.2,57.8,66.0,61.2,54.0,90,76,63,29.88,29.77,3,0,8,0.00
2013-8-7,73.1,67.5,62.9,67.0,62.4,58.0,95,84,67,29.95,29.64,19,4,21,0.15
2013-8-8,71.2,62.2,50.6,58.0,53.0,47.0,96,74,47,30.03,29.96,9,2,13,0.00
2013-8-9,74.6,63.8,52.4,60.0,54.1,48.0,88,72,53,30.02,29.89,17,3,19,0.00
2013-8-10,70.0,61.2,49.4,59.0,52.4,48.0,94,74,56,30.12,30.02,12,2,13,0.00
2013-8-11,74.0,63.9,52.2,61.0,55.0,48.0,90,74,48,30.10,30.00,4,1,5,0.00
2013-8-12,75.9,63.9,54.7,63.0,57.7,53.0,96,82,53,30.03,29.84,22,4,25,0.03
2013-8-13,61.2,58.4,55.0,54.0,49.2,46.0,81,72,62,30.09,29.93,23,10,26,0.00
2013-8-14,66.4,59.4,51.0,54.0,49.9,45.0,91,72,51,30.17,30.10,12,3,14,0.00
2013-8-15,71.6,60.9,49.6,57.0,50.0,44.0,86,69,46,30.11,30.04,10,2,12,0.00
2013-8-16,75.6,62.9,49.4,65.0,55.6,48.0,95,78,49,30.17,30.09,10,2,10,0.00
2013-8-17,79.0,65.6,51.7,64.0,55.2,50.0,94,72,42,30.23,30.14,9,2,12,0.00
2013-8-18,80.8,66.2,53.0,62.0,54.8,49.0,85,68,41,30.20,30.06,12,2,15,0.00
2013-8-19,79.5,68.9,56.3,63.0,57.4,52.0,85,68,47,30.07,29.96,6,1,11,0.00
2013-8-20,83.6,74.2,64.4,66.0,62.3,59.0,85,68,51,30.03,29.96,4,1,9,0.00
2013-8-21,89.4,77.4,67.5,69.0,65.2,61.0,90,67,50,29.99,29.84,16,1,43,0.06
2013-8-22,73.0,68.4,59.8,67.0,62.8,56.0,96,83,62,30.08,29.87,12,3,15,0.07
2013-8-23,72.1,63.0,51.6,64.0,57.5,51.0,97,83,67,30.19,30.09,13,3,16,0.00
2013-8-24,78.8,67.3,56.3,64.0,56.8,53.0,88,70,44,30.26,30.18,11,2,14,0.00
2013-8-25,89.5,75.8,59.7,70.0,62.5,53.0,81,64,49,30.18,29.97,8,1,12,0.00
2013-8-26,84.9,76.9,68.8,71.0,67.8,66.0,93,74,56,30.03,29.89,8,2,12,0.10
2013-8-27,73.5,69.8,67.1,71.0,68.1,65.0,97,94,89,29.94,29.80,5,0,7,1.77
2013-8-28,75.1,70.7,67.1,71.0,68.5,65.0,97,92,83,30.01,29.81,10,2,13,0.00
2013-8-29,84.0,72.2,63.2,73.0,67.8,62.0,98,87,60,30.06,29.92,6,1,10,0.01
2013-8-30,75.9,72.4,70.0,72.0,67.7,65.0,90,85,76,29.93,29.72,14,3,20,0.08
2013-8-31,73.2,68.5,63.0,67.0,64.0,61.0,95,86,73,29.85,29.77,11,2,13,0.00
2013-9-1,81.2,67.7,60.6,67.0,63.3,59.0,96,86,61,29.82,29.63,20,2,25,0.24
2013-9-2,64.4,59.4,57.3,61.0,54.7,52.0,91,84,73,29.92,29.77,18,10,24,0.00
2013-9-3,69.5,63.4,59.4,56.0,53.9,50.0,86,72,55,30.01,29.92,17,4,22,0.00
2013-9-4,66.8,61.5,57.1,62.0,55.4,48.0,93,81,59,30.14,29.92,16,5,18,0.00
2013-9-5,62.0,54.6,45.5,49.0,45.5,42.0,95,73,54,30.31,30.14,9,2,12,0.00
2013-9-6,77.0,61.1,43.7,61.0,51.3,42.0,92,72,54,30.24,29.95,3,0,7,0.00
2013-9-7,76.6,71.1,67.4,69.0,65.4,54.0,93,82,61,29.97,29.83,14,2,14,0.06
2013-9-8,72.1,63.8,54.5,64.0,55.2,51.0,91,75,49,30.12,29.96,13,2,13,0.00
2013-9-9,76.6,65.9,55.4,70.0,59.9,50.0,89,81,73,30.02,29.71,3,0,9,0.01
2013-9-10,86.1,79.9,71.0,73.0,70.1,67.0,91,72,60,29.90,29.69,12,2,18,0.00
2013-9-11,75.2,69.4,63.4,68.0,65.1,62.0,97,86,71,29.95,29.86,7,1,10,0.56
2013-9-12,68.9,62.1,52.2,67.0,56.2,48.0,94,81,68,30.04,29.87,26,11,30,0.01
2013-9-13,55.6,51.3,42.8,50.0,44.1,39.0,91,77,63,30.16,30.04,14,6,20,0.01
2013-9-14,66.7,52.2,38.6,52.0,44.7,37.0,94,77,55,30.16,30.00,4,1,7,0.00
2013-9-15,59.0,56.9,53.8,56.0,52.6,48.0,93,85,77,30.17,29.97,17,3,23,0.36
2013-9-16,55.1,50.2,44.9,49.0,43.1,39.0,87,77,64,30.41,30.18,14,3,18,0.00
2013-9-17,67.8,51.5,37.7,46.0,41.0,36.0,94,71,38,30.41,30.18,2,0,6,0.00
2013-9-18,74.7,61.4,46.4,60.0,51.9,42.0,87,72,55,30.17,29.92,3,0,10,0.00
2013-9-19,79.2,69.0,60.5,70.0,64.6,55.0,96,86,65,29.95,29.72,4,0,13,1.03
2013-9-20,70.3,67.2,62.5,67.0,64.5,59.0,96,91,82,29.75,29.63,5,1,10,0.13
2013-9-21,62.3,55.4,50.4,58.0,50.2,44.0,93,82,71,29.90,29.67,18,9,25,0.09
2013-9-22,51.7,48.7,45.6,46.0,41.8,40.0,91,77,68,30.11,29.90,17,2,19,0.02
2013-9-23,62.3,48.6,36.3,50.0,41.8,35.0,96,79,53,30.20,30.10,5,0,7,0.00
2013-9-24,63.0,51.5,40.5,54.0,46.4,39.0,96,84,63,30.16,30.00,8,1,11,0.00
2013-9-25,66.5,52.4,42.1,58.0,48.4,41.0,97,87,67,30.05,29.98,9,1,11,0.01
2013-9-26,67.8,54.1,43.6,56.0,48.5,43.0,97,83,52,30.12,30.01,8,1,9,0.01
2013-9-27,79.3,60.2,45.8,59.0,50.4,44.0,94,73,38,30.20,30.11,3,0,6,0.01
2013-9-28,76.7,65.0,53.3,59.0,54.4,50.0,92,71,48,30.13,29.82,6,1,11,0.00
2013-9-29,69.7,58.6,45.3,61.0,50.6,43.0,93,76,57,30.01,29.82,14,3,20,0.05
2013-9-30,68.9,53.9,41.2,54.0,47.0,40.0,97,80,47,30.00,29.84,3,0,8,0.00
2013-10-1,78.0,65.1,54.4,63.0,57.5,49.0,87,77,55,29.88,29.71,8,1,17,0.00
2013-10-2,67.0,59.8,48.8,60.0,48.1,42.0,85,67,41,30.06,29.84,8,1,8,0.00
2013-10-3,75.9,59.6,49.1,65.0,53.3,40.0,97,80,63,30.05,29.87,18,1,25,1.31
2013-10-4,62.0,59.4,56.0,61.0,58.5,55.0,97,96,95,30.06,29.87,3,0,11,0.39
2013-10-5,65.5,59.3,55.8,61.0,57.2,55.0,96,92,83,30.06,29.81,6,0,11,1.51
2013-10-6,67.8,59.2,48.7,66.0,57.7,47.0,97,94,89,29.82,29.62,4,0,6,0.51
2013-10-7,58.0,51.7,45.9,50.0,46.9,44.0,95,84,67,30.07,29.57,17,4,23,0.24
2013-10-8,69.3,53.4,39.8,52.0,45.1,39.0,97,76,43,30.20,30.07,3,0,8,0.00
2013-10-9,73.0,59.7,50.3,53.0,48.9,44.0,91,69,46,30.24,30.16,3,0,10,0.00
2013-10-10,70.4,54.6,43.4,56.0,47.8,42.0,94,79,44,30.21,30.10,3,0,5,0.00
2013-10-11,70.8,55.8,45.0,52.0,45.9,43.0,96,73,40,30.15,30.03,7,0,7,0.00
2013-10-12,77.6,62.6,51.3,60.0,51.2,42.0,94,68,42,30.04,29.91,8,1,10,0.13
2013-10-13,60.3,53.3,45.3,56.0,47.2,43.0,91,80,68,30.39,30.03,10,3,13,0.00
2013-10-14,55.3,46.5,36.8,45.0,40.6,36.0,96,81,58,30.47,30.29,11,2,13,0.00
2013-10-15,59.7,49.9,38.3,55.0,46.5,36.0,96,88,70,30.29,29.71,9,0,10,0.21
2013-10-16,56.6,51.8,49.4,55.0,48.6,43.0,96,89,75,29.86,29.69,8,2,13,0.05
2013-10-17,50.7,47.2,39.8,45.0,42.4,38.0,95,84,70,29.87,29.75,8,1,9,0.06
2013-10-18,55.3,45.5,37.7,48.0,42.1,36.0,95,88,69,29.81,29.75,6,1,11,0.10
2013-10-19,49.7,44.8,38.9,45.0,39.7,33.0,96,83,54,29.80,29.68,8,1,15,0.67
2013-10-20,51.2,42.9,36.0,44.0,38.1,35.0,95,84,56,29.83,29.66,4,0,8,0.24
2013-10-21,49.6,44.2,35.5,46.0,39.2,29.0,95,83,68,29.80,29.64,13,4,19,0.13
2013-10-22,45.2,38.8,31.8,38.0,34.2,30.0,95,84,69,29.90,29.71,18,5,24,0.41
2013-10-23,42.0,35.2,31.5,36.0,32.3,30.0,96,89,67,29.90,29.84,13,2,22,0.73
2013-10-24,44.8,40.6,34.3,38.0,33.9,31.0,95,78,61,30.15,29.88,17,6,20,0.18
2013-10-25,45.4,39.5,33.9,38.0,32.9,28.0,95,78,59,30.25,29.82,9,2,16,0.27
2013-10-26,47.2,44.0,41.0,41.0,37.2,33.0,90,77,67,29.96,29.61,22,8,34,0.34
2013-10-27,48.2,43.3,38.5,38.0,34.0,32.0,78,70,58,29.96,29.86,12,2,18,0.00
2013-10-28,47.3,38.6,29.1,41.0,29.4,23.0,82,70,52,30.48,29.96,20,4,22,0.00
2013-10-29,42.5,33.1,22.8,32.0,25.9,21.0,91,76,53,30.50,30.24,1,0,5,0.00
2013-10-30,60.6,47.2,37.3,48.0,39.5,32.0,88,76,48,30.23,29.83,4,0,6,0.00
2013-10-31,60.5,55.2,51.2,59.0,53.6,49.0,96,94,85,29.82,29.01,3,0,8,0.81
2013-11-1,53.9,47.7,41.4,53.0,45.3,39.0,96,91,84,29.66,28.98,13,5,22,0.57
2013-11-2,41.9,39.4,34.5,39.0,35.0,28.0,95,84,72,30.15,29.66,14,2,15,0.03
2013-11-3,44.6,35.1,26.1,33.0,29.0,25.0,95,79,62,30.39,30.15,2,0,11,0.00
2013-11-4,48.4,41.8,33.9,33.0,30.2,26.0,84,65,46,30.41,30.17,9,1,16,0.00
2013-11-5,56.2,50.7,45.5,48.0,43.9,33.0,88,78,61,30.27,30.00,3,0,8,0.00
2013-11-6,54.0,46.8,38.7,53.0,43.7,32.0,95,89,75,30.00,29.62,20,6,23,0.79
2013-11-7,39.4,36.9,33.4,33.0,30.5,28.0,93,78,69,30.10,30.00,14,6,21,0.04
2013-11-8,40.7,36.7,31.8,33.0,29.2,25.0,92,75,57,30.24,30.08,16,3,19,0.00
2013-11-9,46.8,41.3,35.6,43.0,36.0,29.0,93,82,67,30.07,29.67,22,5,28,0.38
2013-11-10,43.0,39.9,36.3,36.0,32.9,29.0,87,76,64,30.22,29.84,22,9,32,0.02
2013-11-11,40.2,34.1,30.6,36.0,29.3,20.0,94,83,63,30.22,30.00,23,11,31,0.32
2013-11-12,30.9,28.1,23.8,23.0,20.1,18.0,80,72,64,30.58,30.47,20,8,27,0.00
2013-11-13,39.6,31.6,21.1,29.0,22.4,17.0,86,70,52,30.48,29.97,9,2,14,0.00
2013-11-14,45.4,40.5,34.2,34.0,30.7,27.0,76,68,62,30.00,29.84,8,2,14,0.00
2013-11-15,52.9,43.1,36.1,39.0,35.0,32.0,87,74,58,29.96,29.87,3,0,6,0.00
2013-11-16,54.9,45.6,34.5,51.0,41.3,32.0,93,85,78,29.98,29.55,8,1,17,0.11
2013-11-17,61.6,54.3,44.2,59.0,52.4,40.0,96,93,84,29.56,29.01,16,3,32,1.92
2013-11-18,43.8,37.0,32.3,39.0,29.7,23.0,90,75,64,30.15,29.31,22,14,35,0.00
2013-11-19,34.4,31.8,27.3,26.0,23.6,22.0,83,72,65,30.38,30.15,17,4,21,0.00
2013-11-20,43.6,36.0,29.7,29.0,25.7,23.0,76,67,49,30.37,30.20,7,1,12,0.00
2013-11-21,43.7,39.6,35.1,40.0,34.8,27.0,94,83,64,30.22,30.16,2,0,7,0.02
2013-11-22,41.2,33.3,27.3,40.0,29.6,24.0,95,86,73,30.40,30.18,24,9,28,0.05
2013-11-23,32.2,23.2,18.9,26.0,17.3,12.0,90,78,64,30.55,30.27,29,18,40,0.00
2013-11-24,21.7,19.7,18.3,17.0,13.6,11.0,89,77,68,30.59,30.20,21,6,26,0.00
2013-11-25,32.1,29.4,23.2,28.0,23.6,16.0,89,79,62,30.19,29.92,9,2,14,0.00
2013-11-26,32.8,29.2,23.2,30.0,26.3,17.0,94,89,74,30.09,29.95,20,5,24,0.00
2013-11-27,25.6,22.2,18.3,20.0,17.0,13.0,90,80,72,30.22,30.03,21,5,25,0.00
2013-11-28,24.0,19.1,14.9,20.0,15.4,11.0,88,85,82,30.46,30.22,4,0,7,0.00
2013-11-29,30.5,20.5,8.6,24.0,16.6,6.0,91,84,74,30.65,30.47,3,0,7,0.00
2013-11-30,37.5,31.0,22.1,34.0,26.4,18.0,91,83,78,30.49,30.03,6,1,11,0.07
2013-12-1,35.3,33.2,30.8,32.0,29.7,27.0,92,86,80,30.12,30.03,4,0,6,0.05
2013-12-2,36.1,32.1,29.9,28.0,26.7,24.0,88,80,66,30.02,29.90,2,0,4,0.00
2013-12-3,30.8,29.0,27.1,29.0,24.3,22.0,94,82,75,29.97,29.89,3,0,6,0.00
2013-12-4,46.1,36.2,30.5,45.0,34.5,29.0,95,93,92,29.91,29.45,4,0,10,0.23
2013-12-5,48.9,32.5,22.1,46.0,26.2,15.0,95,77,68,30.14,29.44,14,7,24,0.00
2013-12-6,21.9,19.8,18.8,16.0,13.6,11.0,87,77,70,30.40,30.13,11,6,19,0.00
2013-12-7,20.2,17.2,13.5,15.0,10.3,7.0,84,74,66,30.61,30.41,13,6,16,0.00
2013-12-8,20.2,16.3,11.5,17.0,10.6,7.0,88,79,70,30.59,30.05,7,0,9,0.00
2013-12-9,27.2,20.7,12.1,24.0,17.4,8.0,91,86,76,30.06,29.83,14,4,20,0.00
2013-12-10,17.4,13.0,7.4,13.0,8.7,4.0,88,83,77,30.13,29.84,12,4,17,0.00
2013-12-11,15.8,13.3,11.6,11.0,9.2,7.0,87,83,76,30.40,30.14,15,7,20,0.00
2013-12-12,21.0,13.6,6.8,15.0,9.0,3.0,88,82,72,30.39,30.11,12,4,18,0.00
2013-12-13,21.6,16.2,8.5,16.0,8.6,-1.0,84,72,62,30.43,30.11,17,5,21,0.00
2013-12-14,19.4,14.4,8.1,15.0,9.8,0.0,90,81,69,30.43,29.94,3,0,5,0.00
2013-12-15,21.7,18.4,15.6,19.0,15.1,13.0,93,86,77,30.01,29.78,14,5,24,0.00
2013-12-16,18.0,12.1,2.4,12.0,7.5,-1.0,87,82,71,30.20,29.98,3,0,10,0.00
2013-12-17,25.0,20.8,14.3,22.0,17.2,10.0,91,85,79,29.98,29.82,7,1,11,0.00
2013-12-18,26.5,23.1,19.3,22.0,17.5,15.0,91,79,74,30.05,29.76,12,3,17,0.00
2013-12-19,31.5,27.1,21.6,28.0,22.8,17.0,92,84,79,30.11,29.75,13,3,15,0.00
2013-12-20,24.5,22.6,20.0,22.0,20.1,18.0,91,89,86,30.02,29.85,4,0,6,0.00
2013-12-21,29.0,25.2,23.0,25.0,22.3,21.0,93,88,83,29.98,29.83,4,0,7,0.00
2013-12-22,25.0,21.0,16.3,22.0,18.3,14.0,91,89,86,30.07,29.76,3,0,7,0.00
2013-12-23,17.3,14.4,11.2,14.0,11.3,8.0,89,87,83,30.37,30.08,0,0,0,0.00
2013-12-24,12.7,7.4,-1.3,7.0,3.3,-5.0,88,83,74,30.53,30.37,0,0,0,0.00
2013-12-25,23.3,18.3,10.3,20.0,14.8,8.0,90,86,81,30.45,30.06,0,0,0,0.00
2013-12-26,22.8,20.6,18.8,19.0,16.6,14.0,92,84,70,30.23,30.02,0,0,0,0.00
2013-12-27,35.8,25.1,16.2,31.0,21.0,11.0,89,84,78,30.28,29.92,2,0,8,0.00
2013-12-28,43.9,36.7,32.0,35.0,31.5,29.0,91,82,71,30.02,29.75,5,1,11,0.56
2013-12-29,39.3,23.7,12.4,33.0,19.5,7.0,92,84,75,30.08,29.70,23,10,26,0.03
2013-12-30,13.3,11.9,9.9,8.0,5.7,3.0,86,76,63,30.28,30.09,10,2,14,0.00
2013-12-31,10.0,9.3,8.4,6.0,4.0,2.0,85,79,69,30.37,30.07,13,6,21,0.00
2014-1-1,12.2,8.7,2.8,5.0,1.6,-3.0,80,73,62,30.48,30.36,13,1,13,0.00
2014-1-2,10.6,5.7,-0.7,1.0,-1.3,-6.0,82,73,62,30.42,30.32,10,1,13,0.00